Wetterdaten: Woche 11.07.11 - 17.07.11 (KW28)
Datum Zeit Temp. A. Feuchte A. Luftdruck Regen Wind Richtung Taupunkt Windchill Windben
11.07.2011 00:00 23,3 C 64 % 1013,9 hPa 0,0 l/m 4,3 km/h SW 15,9 C 23,1 C 16,5 km/h
11.07.2011 01:00 21,6 C 68 % 1014,3 hPa 0,0 l/m 4,9 km/h S-SO 15,3 C 21,6 C 25,0 km/h
11.07.2011 02:00 21,4 C 64 % 1014,2 hPa 0,0 l/m 3,8 km/h S-SO 14,3 C 21,4 C 18,5 km/h
11.07.2011 03:00 21,6 C 61 % 1014,1 hPa 0,0 l/m 2,8 km/h N-NO 13,7 C 21,6 C 12,9 km/h
11.07.2011 04:00 21,2 C 64 % 1014,4 hPa 0,0 l/m 2,2 km/h NW 14,2 C 21,2 C 15,3 km/h
11.07.2011 05:00 20,7 C 66 % 1014,6 hPa 0,0 l/m 2,0 km/h S 14,1 C 20,7 C 15,3 km/h
11.07.2011 06:00 20,9 C 67 % 1014,9 hPa 0,0 l/m 3,6 km/h NW 14,4 C 20,9 C 17,7 km/h
11.07.2011 07:00 21,5 C 66 % 1015,3 hPa 0,0 l/m 3,6 km/h NW 14,9 C 21,5 C 14,1 km/h
11.07.2011 08:00 22,4 C 65 % 1015,6 hPa 0,0 l/m 6,2 km/h NW 15,4 C 22,1 C 18,9 km/h
11.07.2011 09:00 23,6 C 62 % 1015,8 hPa 0,0 l/m 4,5 km/h NW 15,9 C 23,6 C 18,1 km/h
11.07.2011 10:00 24,6 C 59 % 1015,9 hPa 0,0 l/m 3,8 km/h N-NW 16,1 C 24,6 C 16,9 km/h
11.07.2011 11:00 25,4 C 58 % 1016,2 hPa 0,0 l/m 3,4 km/h NW 16,5 C 25,4 C 12,1 km/h
11.07.2011 12:00 26,2 C 55 % 1016,4 hPa 0,0 l/m 5,4 km/h S-SW 16,5 C 26,2 C 17,7 km/h
11.07.2011 13:00 24,3 C 62 % 1016,9 hPa 0,0 l/m 3,5 km/h NW 16,3 C 24,3 C 16,1 km/h
11.07.2011 14:00 23,7 C 69 % 1016,8 hPa 0,3 l/m 1,3 km/h S 17,7 C 23,7 C 7,2 km/h
11.07.2011 15:00 27,9 C 53 % 1016,3 hPa 0,0 l/m 2,7 km/h S-SO 17,4 C 27,9 C 13,7 km/h
11.07.2011 16:00 29,4 C 47 % 1015,7 hPa 0,0 l/m 3,0 km/h W-SW 16,8 C 29,4 C 12,1 km/h
11.07.2011 17:00 31,2 C 42 % 1015,3 hPa 0,0 l/m 3,2 km/h N-NW 16,6 C 31,2 C 11,3 km/h
11.07.2011 18:00 30,6 C 41 % 1015,2 hPa 0,0 l/m 2,3 km/h S-SO 15,8 C 30,6 C 10,1 km/h
11.07.2011 19:00 28,4 C 47 % 1015,3 hPa 0,0 l/m 2,0 km/h W 15,8 C 28,4 C 10,0 km/h
11.07.2011 20:00 26,3 C 52 % 1016,2 hPa 0,0 l/m 3,4 km/h N-NW 15,4 C 26,3 C 9,6 km/h
11.07.2011 21:00 24,7 C 58 % 1017,1 hPa 0,0 l/m 0,0 km/h N 15,7 C 24,7 C 0,8 km/h
11.07.2011 22:00 22,2 C 66 % 1017,7 hPa 0,0 l/m 0,3 km/h N-NW 15,6 C 22,2 C 2,4 km/h
11.07.2011 23:00 21,6 C 67 % 1018,0 hPa 0,0 l/m 0,7 km/h N 15,1 C 21,6 C 3,2 km/h
12.07.2011 00:00 20,6 C 67 % 1018,3 hPa 0,0 l/m 1,1 km/h N-NW 14,1 C 20,6 C 3,6 km/h
12.07.2011 01:00 20,0 C 65 % 1018,8 hPa 0,0 l/m 0,6 km/h N 13,2 C 20,0 C 3,6 km/h
12.07.2011 02:00 19,1 C 67 % 1018,5 hPa 0,0 l/m 0,4 km/h N-NW 12,7 C 19,1 C 2,4 km/h
12.07.2011 03:00 17,8 C 70 % 1018,3 hPa 0,0 l/m 1,5 km/h N-NW 12,3 C 17,8 C 4,8 km/h
12.07.2011 04:00 16,9 C 73 % 1018,7 hPa 0,0 l/m 0,0 km/h N 12,0 C 16,9 C 0,4 km/h
12.07.2011 05:00 15,8 C 76 % 1018,9 hPa 0,0 l/m 0,0 km/h N 11,5 C 15,8 C 0,8 km/h
12.07.2011 06:00 15,8 C 80 % 1019,0 hPa 0,0 l/m 0,3 km/h N 12,3 C 15,8 C 3,2 km/h
12.07.2011 07:00 17,0 C 79 % 1019,0 hPa 0,0 l/m 0,3 km/h NW 13,2 C 17,0 C 2,8 km/h
12.07.2011 08:00 18,8 C 74 % 1018,7 hPa 0,0 l/m 1,0 km/h N-NO 13,9 C 18,8 C 6,0 km/h
12.07.2011 09:00 20,4 C 67 % 1018,3 hPa 0,0 l/m 1,3 km/h N-NO 14,0 C 20,4 C 6,0 km/h
12.07.2011 10:00 22,4 C 58 % 1018,1 hPa 0,0 l/m 1,4 km/h N-NO 13,7 C 22,4 C 6,4 km/h
12.07.2011 11:00 25,3 C 50 % 1017,7 hPa 0,0 l/m 0,7 km/h N 14,0 C 25,3 C 4,8 km/h
12.07.2011 12:00 26,7 C 46 % 1017,3 hPa 0,0 l/m 1,3 km/h N-NO 13,9 C 26,7 C 6,4 km/h
12.07.2011 13:00 28,9 C 41 % 1016,5 hPa 0,0 l/m 0,5 km/h N 14,1 C 28,9 C 4,8 km/h
12.07.2011 14:00 31,4 C 36 % 1015,5 hPa 0,0 l/m 0,8 km/h S 14,5 C 31,4 C 6,0 km/h
12.07.2011 15:00 31,8 C 35 % 1015,0 hPa 0,0 l/m 1,4 km/h N-NO 14,3 C 31,8 C 6,8 km/h
12.07.2011 16:00 32,3 C 36 % 1014,2 hPa 0,0 l/m 1,0 km/h O-NO 15,1 C 32,3 C 6,0 km/h
12.07.2011 17:00 32,1 C 37 % 1013,5 hPa 0,0 l/m 0,8 km/h O-NO 15,3 C 32,1 C 5,6 km/h
12.07.2011 18:00 30,6 C 41 % 1013,0 hPa 0,0 l/m 0,8 km/h O-NO 15,9 C 30,6 C 4,4 km/h
12.07.2011 19:00 28,2 C 46 % 1012,6 hPa 0,0 l/m 0,5 km/h N 15,5 C 28,2 C 3,2 km/h
12.07.2011 20:00 27,1 C 49 % 1012,6 hPa 0,0 l/m 0,0 km/h N 15,5 C 27,1 C 0,4 km/h
12.07.2011 21:00 25,5 C 55 % 1012,4 hPa 0,0 l/m 0,0 km/h N 15,6 C 25,5 C 0,0 km/h
12.07.2011 22:00 23,0 C 63 % 1012,4 hPa 0,0 l/m 0,0 km/h N 15,6 C 23,0 C 0,0 km/h
12.07.2011 23:00 21,2 C 69 % 1011,8 hPa 0,0 l/m 0,0 km/h N 15,2 C 21,2 C 0,0 km/h
13.07.2011 00:00 20,0 C 74 % 1011,7 hPa 0,0 l/m 0,0 km/h N 15,1 C 20,0 C 0,0 km/h
13.07.2011 01:00 19,3 C 77 % 1010,9 hPa 0,0 l/m 0,0 km/h N 15,2 C 19,3 C 0,0 km/h
13.07.2011 02:00 19,1 C 79 % 1010,0 hPa 0,0 l/m 0,0 km/h N 15,2 C 19,1 C 0,0 km/h
13.07.2011 03:00 18,8 C 79 % 1009,4 hPa 0,0 l/m 0,0 km/h N 15,1 C 18,8 C 0,0 km/h
13.07.2011 04:00 18,1 C 81 % 1009,3 hPa 0,0 l/m 0,0 km/h N 14,8 C 18,1 C 0,0 km/h
13.07.2011 05:00 17,6 C 81 % 1009,5 hPa 0,0 l/m 0,0 km/h N 14,3 C 17,6 C 0,0 km/h
13.07.2011 06:00 17,7 C 81 % 1009,1 hPa 0,0 l/m 0,0 km/h N 14,4 C 17,7 C 0,0 km/h
13.07.2011 07:00 18,9 C 81 % 1009,1 hPa 0,0 l/m 0,0 km/h N 15,5 C 18,9 C 0,8 km/h
13.07.2011 08:00 21,1 C 80 % 1009,2 hPa 0,0 l/m 0,2 km/h N 17,4 C 21,1 C 2,8 km/h
13.07.2011 09:00 23,6 C 72 % 1009,4 hPa 0,0 l/m 0,4 km/h SW 18,1 C 23,6 C 5,2 km/h
13.07.2011 10:00 27,5 C 60 % 1009,3 hPa 0,0 l/m 0,6 km/h N 18,8 C 27,5 C 5,6 km/h
13.07.2011 11:00 30,1 C 52 % 1008,9 hPa 0,0 l/m 0,6 km/h SW 19,0 C 30,1 C 4,4 km/h
13.07.2011 12:00 32,8 C 45 % 1008,4 hPa 0,0 l/m 1,4 km/h O-SO 19,0 C 32,8 C 10,1 km/h
13.07.2011 13:00 34,3 C 40 % 1008,0 hPa 0,0 l/m 1,8 km/h S-SO 18,6 C 34,3 C 10,1 km/h
13.07.2011 14:00 35,6 C 38 % 1007,3 hPa 0,0 l/m 2,0 km/h O-SO 18,9 C 35,6 C 13,7 km/h
13.07.2011 15:00 36,5 C 36 % 1006,5 hPa 0,0 l/m 1,8 km/h NO 19,1 C 36,5 C 13,7 km/h
13.07.2011 16:00 36,6 C 35 % 1005,8 hPa 0,0 l/m 2,0 km/h O-SO 18,6 C 36,6 C 12,5 km/h
13.07.2011 17:00 35,5 C 37 % 1005,3 hPa 0,0 l/m 3,4 km/h O-SO 18,3 C 35,5 C 19,3 km/h
13.07.2011 18:00 34,3 C 40 % 1005,1 hPa 0,0 l/m 2,7 km/h O-SO 18,6 C 34,3 C 17,3 km/h
13.07.2011 19:00 32,8 C 44 % 1004,9 hPa 0,0 l/m 3,5 km/h S 18,7 C 32,8 C 18,9 km/h
13.07.2011 20:00 31,5 C 47 % 1004,9 hPa 0,0 l/m 2,0 km/h S-SO 18,8 C 31,5 C 10,9 km/h
13.07.2011 21:00 30,5 C 50 % 1005,7 hPa 0,0 l/m 0,3 km/h N 18,7 C 30,5 C 5,2 km/h
13.07.2011 22:00 29,5 C 51 % 1005,7 hPa 0,0 l/m 1,0 km/h S 18,3 C 29,5 C 7,6 km/h
13.07.2011 23:00 28,7 C 53 % 1005,5 hPa 0,0 l/m 1,1 km/h S 18,1 C 28,7 C 8,4 km/h
14.07.2011 00:00 27,9 C 56 % 1006,2 hPa 0,0 l/m 0,7 km/h S 18,2 C 27,9 C 7,2 km/h
14.07.2011 01:00 26,4 C 61 % 1006,9 hPa 0,0 l/m 0,7 km/h S-SO 18,3 C 26,4 C 4,0 km/h
14.07.2011 02:00 24,9 C 65 % 1008,0 hPa 0,0 l/m 2,5 km/h S 17,7 C 24,9 C 14,5 km/h
14.07.2011 03:00 23,3 C 66 % 1009,0 hPa 0,0 l/m 3,3 km/h S-SW 16,5 C 23,3 C 16,9 km/h
14.07.2011 04:00 22,1 C 67 % 1009,2 hPa 0,0 l/m 2,0 km/h NW 15,6 C 22,1 C 8,4 km/h
14.07.2011 05:00 21,4 C 70 % 1009,7 hPa 0,0 l/m 1,0 km/h W-SW 15,6 C 21,4 C 7,6 km/h
14.07.2011 06:00 20,6 C 72 % 1010,5 hPa 0,0 l/m 3,2 km/h NW 15,5 C 20,6 C 13,7 km/h
14.07.2011 07:00 20,8 C 70 % 1011,0 hPa 0,0 l/m 1,4 km/h W-SW 15,0 C 20,8 C 9,7 km/h
14.07.2011 08:00 21,7 C 63 % 1011,7 hPa 0,0 l/m 4,4 km/h S-SW 14,3 C 21,7 C 22,1 km/h
14.07.2011 09:00 21,8 C 62 % 1012,3 hPa 0,8 l/m 5,1 km/h S-SW 14,2 C 21,7 C 20,5 km/h
14.07.2011 10:00 21,6 C 67 % 1012,7 hPa 0,0 l/m 5,5 km/h NW 15,2 C 21,5 C 24,1 km/h
14.07.2011 11:00 23,5 C 61 % 1013,1 hPa 0,0 l/m 6,5 km/h S-SO 15,5 C 23,5 C 20,9 km/h
14.07.2011 12:00 25,2 C 56 % 1013,4 hPa 0,0 l/m 5,0 km/h NW 15,8 C 25,2 C 20,1 km/h
14.07.2011 13:00 26,2 C 53 % 1013,7 hPa 0,0 l/m 6,5 km/h S-SW 15,8 C 26,1 C 21,3 km/h
14.07.2011 14:00 26,5 C 52 % 1013,5 hPa 0,0 l/m 6,4 km/h N-NW 15,8 C 26,4 C 23,3 km/h
14.07.2011 15:00 26,9 C 49 % 1013,5 hPa 0,0 l/m 5,7 km/h NO 15,3 C 26,9 C 21,7 km/h
14.07.2011 16:00 26,9 C 48 % 1013,8 hPa 0,0 l/m 5,0 km/h SO 15,0 C 26,9 C 17,7 km/h
14.07.2011 17:00 24,2 C 54 % 1013,9 hPa 0,0 l/m 4,7 km/h O-NO 14,3 C 24,2 C 17,7 km/h
14.07.2011 18:00 21,5 C 61 % 1013,9 hPa 0,0 l/m 4,7 km/h SW 13,7 C 21,5 C 20,9 km/h
14.07.2011 19:00 20,6 C 63 % 1013,8 hPa 0,0 l/m 3,5 km/h NW 13,4 C 20,6 C 17,7 km/h
14.07.2011 20:00 19,4 C 69 % 1014,0 hPa 4,2 l/m 4,2 km/h SW 13,4 C 19,3 C 19,3 km/h
14.07.2011 21:00 17,4 C 80 % 1015,4 hPa 0,0 l/m 1,8 km/h S-SO 13,8 C 17,4 C 15,3 km/h
14.07.2011 22:00 17,5 C 77 % 1015,6 hPa 0,3 l/m 2,8 km/h W-SW 13,4 C 17,5 C 15,7 km/h
14.07.2011 23:00 17,6 C 76 % 1015,9 hPa 0,0 l/m 1,9 km/h W-SW 13,2 C 17,6 C 12,9 km/h
15.07.2011 00:00 17,7 C 72 % 1016,8 hPa 0,0 l/m 2,1 km/h W-NW 12,6 C 17,7 C 16,5 km/h
15.07.2011 01:00 17,5 C 70 % 1017,1 hPa 0,3 l/m 3,4 km/h NW 12,0 C 17,5 C 17,3 km/h
15.07.2011 02:00 16,9 C 71 % 1017,3 hPa 0,0 l/m 1,8 km/h S 11,5 C 16,9 C 11,7 km/h
15.07.2011 03:00 16,7 C 70 % 1017,2 hPa 0,0 l/m 1,7 km/h S-SO 11,2 C 16,7 C 10,4 km/h
15.07.2011 04:00 16,7 C 70 % 1017,3 hPa 0,0 l/m 2,3 km/h NW 11,3 C 16,7 C 13,3 km/h
15.07.2011 05:00 16,5 C 71 % 1017,5 hPa 0,0 l/m 2,8 km/h NW 11,3 C 16,5 C 8,9 km/h
15.07.2011 06:00 16,5 C 73 % 1017,7 hPa 0,0 l/m 3,9 km/h NW 11,6 C 16,5 C 9,7 km/h
15.07.2011 07:00 17,1 C 71 % 1017,8 hPa 0,0 l/m 4,3 km/h NW 11,9 C 17,1 C 12,5 km/h
15.07.2011 08:00 17,8 C 71 % 1018,2 hPa 0,0 l/m 4,0 km/h NW 12,4 C 17,8 C 12,9 km/h
15.07.2011 09:00 18,7 C 68 % 1018,2 hPa 0,0 l/m 3,7 km/h N-NW 12,6 C 18,7 C 13,7 km/h
15.07.2011 10:00 19,4 C 64 % 1018,4 hPa 0,0 l/m 5,3 km/h W-NW 12,3 C 19,3 C 19,3 km/h
15.07.2011 11:00 18,9 C 65 % 1018,5 hPa 0,5 l/m 4,6 km/h S-SO 12,2 C 18,9 C 16,9 km/h
15.07.2011 12:00 17,6 C 71 % 1019,0 hPa 0,8 l/m 4,1 km/h NW 12,2 C 17,6 C 23,3 km/h
15.07.2011 13:00 16,1 C 76 % 1019,6 hPa 2,9 l/m 1,3 km/h S-SW 12,0 C 16,1 C 10,9 km/h
15.07.2011 14:00 16,6 C 79 % 1018,7 hPa 0,3 l/m 1,7 km/h N-NW 12,8 C 16,6 C 7,7 km/h
15.07.2011 15:00 19,0 C 65 % 1018,4 hPa 0,0 l/m 3,0 km/h S-SW 12,3 C 19,0 C 13,3 km/h
15.07.2011 16:00 21,1 C 55 % 1017,7 hPa 0,0 l/m 5,3 km/h SO 11,6 C 21,0 C 18,5 km/h
15.07.2011 17:00 22,8 C 53 % 1017,2 hPa 0,0 l/m 3,9 km/h NW 12,6 C 22,8 C 14,5 km/h
15.07.2011 18:00 22,3 C 53 % 1017,1 hPa 0,0 l/m 3,3 km/h O-SO 12,1 C 22,3 C 13,7 km/h
15.07.2011 19:00 20,9 C 55 % 1017,0 hPa 0,0 l/m 1,8 km/h S 11,5 C 20,9 C 10,9 km/h
15.07.2011 20:00 19,7 C 55 % 1017,0 hPa 0,0 l/m 2,0 km/h W-NW 10,3 C 19,7 C 12,9 km/h
15.07.2011 21:00 18,8 C 57 % 1017,2 hPa 0,0 l/m 1,4 km/h S 10,0 C 18,8 C 10,1 km/h
15.07.2011 22:00 18,0 C 59 % 1017,3 hPa 0,0 l/m 0,4 km/h N 9,8 C 18,0 C 5,6 km/h
15.07.2011 23:00 17,8 C 59 % 1017,2 hPa 0,0 l/m 1,0 km/h S 9,7 C 17,8 C 12,5 km/h
16.07.2011 00:00 18,0 C 59 % 1017,2 hPa 0,0 l/m 2,1 km/h S 9,8 C 18,0 C 9,7 km/h
16.07.2011 01:00 18,2 C 58 % 1017,6 hPa 0,0 l/m 1,9 km/h NW 9,8 C 18,2 C 10,4 km/h
16.07.2011 02:00 18,1 C 60 % 1017,2 hPa 0,0 l/m 1,8 km/h W-NW 10,1 C 18,1 C 9,2 km/h
16.07.2011 03:00 17,7 C 61 % 1017,0 hPa 0,0 l/m 1,6 km/h N-NW 10,1 C 17,7 C 7,6 km/h
16.07.2011 04:00 17,0 C 65 % 1016,5 hPa 0,0 l/m 0,3 km/h N 10,2 C 17,0 C 2,8 km/h
16.07.2011 05:00 16,8 C 65 % 1016,5 hPa 0,0 l/m 0,0 km/h N 10,2 C 16,8 C 1,6 km/h
16.07.2011 06:00 16,5 C 68 % 1016,5 hPa 0,0 l/m 0,2 km/h N 10,5 C 16,5 C 2,0 km/h
16.07.2011 07:00 17,5 C 65 % 1016,4 hPa 0,0 l/m 1,1 km/h NW 10,8 C 17,5 C 8,1 km/h
16.07.2011 08:00 19,3 C 59 % 1016,4 hPa 0,0 l/m 2,8 km/h NW 11,1 C 19,3 C 8,4 km/h
16.07.2011 09:00 20,1 C 56 % 1016,3 hPa 0,0 l/m 2,3 km/h NW 10,9 C 20,1 C 8,4 km/h
16.07.2011 10:00 22,1 C 51 % 1015,8 hPa 0,0 l/m 1,3 km/h O 11,5 C 22,1 C 8,9 km/h
16.07.2011 11:00 25,6 C 42 % 1014,9 hPa 0,0 l/m 2,3 km/h N 11,8 C 25,6 C 8,4 km/h
16.07.2011 12:00 28,1 C 38 % 1014,0 hPa 0,0 l/m 1,2 km/h N-NO 12,2 C 28,1 C 6,4 km/h
16.07.2011 13:00 28,9 C 36 % 1013,2 hPa 0,0 l/m 0,9 km/h S-SO 12,4 C 28,9 C 5,2 km/h
16.07.2011 14:00 29,8 C 34 % 1012,4 hPa 0,0 l/m 1,7 km/h S 12,4 C 29,8 C 10,5 km/h
16.07.2011 15:00 29,0 C 35 % 1011,6 hPa 0,0 l/m 1,5 km/h NO 12,1 C 29,0 C 8,4 km/h
16.07.2011 16:00 29,1 C 37 % 1010,6 hPa 0,0 l/m 0,9 km/h NO 12,9 C 29,1 C 7,6 km/h
16.07.2011 17:00 29,5 C 38 % 1009,7 hPa 0,0 l/m 1,5 km/h SO 13,6 C 29,5 C 8,1 km/h
16.07.2011 18:00 29,0 C 38 % 1009,2 hPa 0,0 l/m 0,5 km/h SW 13,3 C 29,0 C 5,2 km/h
16.07.2011 19:00 27,2 C 41 % 1008,7 hPa 0,0 l/m 0,4 km/h N 12,8 C 27,2 C 4,4 km/h
16.07.2011 20:00 25,3 C 48 % 1008,6 hPa 0,0 l/m 0,0 km/h N 13,4 C 25,3 C 0,8 km/h
16.07.2011 21:00 23,3 C 55 % 1008,5 hPa 0,0 l/m 0,0 km/h N 13,7 C 23,3 C 0,4 km/h
16.07.2011 22:00 20,8 C 63 % 1008,2 hPa 0,0 l/m 0,0 km/h N 13,4 C 20,8 C 0,4 km/h
16.07.2011 23:00 18,5 C 71 % 1007,9 hPa 0,0 l/m 0,0 km/h N 13,1 C 18,5 C 0,8 km/h
17.07.2011 00:00 17,6 C 76 % 1007,5 hPa 0,0 l/m 0,0 km/h N 13,2 C 17,6 C 2,4 km/h
17.07.2011 01:00 16,7 C 78 % 1007,1 hPa 0,0 l/m 0,0 km/h N 12,8 C 16,7 C 0,8 km/h
17.07.2011 02:00 15,4 C 80 % 1006,7 hPa 0,0 l/m 0,0 km/h N 11,9 C 15,4 C 0,0 km/h
17.07.2011 03:00 14,3 C 81 % 1006,4 hPa 0,0 l/m 0,0 km/h N 11,1 C 14,3 C 0,0 km/h
17.07.2011 04:00 13,5 C 82 % 1006,1 hPa 0,0 l/m 0,0 km/h N 10,4 C 13,5 C 0,0 km/h
17.07.2011 05:00 13,0 C 82 % 1005,9 hPa 0,0 l/m 0,0 km/h N 10,0 C 13,0 C 0,0 km/h
17.07.2011 06:00 13,3 C 82 % 1005,8 hPa 0,0 l/m 0,0 km/h N 10,2 C 13,3 C 0,4 km/h
17.07.2011 07:00 14,7 C 80 % 1005,6 hPa 0,0 l/m 0,0 km/h N 11,3 C 14,7 C 0,8 km/h
17.07.2011 08:00 16,5 C 80 % 1005,6 hPa 0,0 l/m 0,1 km/h N 13,1 C 16,5 C 2,0 km/h
17.07.2011 09:00 18,8 C 80 % 1005,2 hPa 0,0 l/m 0,2 km/h N 15,2 C 18,8 C 2,4 km/h
17.07.2011 10:00 23,0 C 68 % 1004,6 hPa 0,0 l/m 0,5 km/h N 16,7 C 23,0 C 5,2 km/h
17.07.2011 11:00 28,9 C 49 % 1003,5 hPa 0,0 l/m 0,7 km/h O-NO 16,9 C 28,9 C 6,8 km/h
17.07.2011 12:00 31,9 C 35 % 1002,7 hPa 0,0 l/m 2,3 km/h O-SO 14,6 C 31,9 C 12,5 km/h
17.07.2011 13:00 32,7 C 33 % 1002,1 hPa 0,0 l/m 2,8 km/h O 14,4 C 32,7 C 13,3 km/h
17.07.2011 14:00 33,3 C 33 % 1001,5 hPa 0,0 l/m 3,8 km/h NO 14,5 C 33,3 C 19,3 km/h
17.07.2011 15:00 33,4 C 32 % 1001,2 hPa 0,0 l/m 6,3 km/h S-SW 14,2 C 33,4 C 26,1 km/h
17.07.2011 16:00 32,7 C 34 % 1000,8 hPa 0,0 l/m 7,6 km/h N-NO 14,6 C 32,6 C 29,4 km/h
17.07.2011 17:00 32,8 C 35 % 1000,1 hPa 0,0 l/m 5,0 km/h SO 15,3 C 32,8 C 22,9 km/h
17.07.2011 18:00 32,2 C 37 % 999,4 hPa 0,0 l/m 3,5 km/h O-NO 15,7 C 32,2 C 16,1 km/h
17.07.2011 19:00 30,6 C 41 % 999,3 hPa 0,0 l/m 2,6 km/h S-SO 15,9 C 30,6 C 15,7 km/h
17.07.2011 20:00 28,9 C 45 % 999,4 hPa 0,0 l/m 1,3 km/h S-SO 15,8 C 28,9 C 11,7 km/h
17.07.2011 21:00 23,8 C 55 % 1001,8 hPa 0,0 l/m 7,0 km/h S-SO 14,0 C 23,5 C 29,0 km/h
17.07.2011 22:00 20,8 C 56 % 1002,8 hPa 0,0 l/m 7,6 km/h S-SO 11,5 C 20,2 C 30,2 km/h
17.07.2011 23:00 19,1 C 60 % 1003,8 hPa 0,0 l/m 9,5 km/h S 11,0 C 17,9 C 31,8 km/h
Min-Datum _ 17.07.11 17.07.11 17.07.11 - 11.07.11 - 15.07.11 17.07.11 11.07.11
_ Min-Zeit 05:30 15:00 18:45 - 00:00 - 22:45 05:30 00:00
Minimum _ 12,9 C 31 % 999,2 hPa - 0,0 km/h - 9,7 C 12,9 C 0,0 km/h
Max-Datum _ 13.07.11 17.07.11 15.07.11 14.07.11 17.07.11 - 13.07.11 13.07.11 17.07.11
_ Max-Zeit 15:15 04:15 13:30 20:45 23:00 - 15:15 15:00 22:45
Maximum _ 36,8 C 82 % 1019,7 hPa 4,2 l/m 11,2 km/h
S
- 19,5 C 36,6 C 41,8 km/h
W
Durchschnitt _ 23,2 C 59 % 1012,4 hPa #10,1 l/m 2,1 km/h NW 14,2 C 23,2 C 10,1 km/h